Time;durP1;ratioP1;P1;durP2;ratioP2;P2;SDS_P1;SDS_P2;PMS_P1;PMS_P2;Temp;Humidity;BMP_temperature;BMP_pressure;BME280_temperature;BME280_humidity;BME280_pressure;Samples;Min_cycle;Max_cycle;Signal;HPM_P1;HPM_P2
2023/03/18 00:00:45;;;;;;;13.30;5.50;;;;;;;12.74;100.00;100449.31;4909069;29;20114;-83
2023/03/18 00:03:12;;;;;;;15.68;6.20;;;;;;;12.71;100.00;100442.25;4890231;29;20036;-82
2023/03/18 00:05:38;;;;;;;14.80;6.30;;;;;;;12.71;100.00;100450.50;4887870;29;20036;-83
2023/03/18 00:08:05;;;;;;;15.98;6.25;;;;;;;12.83;100.00;100464.94;4869706;29;20028;-82
2023/03/18 00:10:32;;;;;;;16.42;5.90;;;;;;;12.67;100.00;100465.53;4886959;29;20040;-83
2023/03/18 00:12:58;;;;;;;23.55;6.90;;;;;;;12.64;100.00;100463.06;4887903;29;20067;-83
2023/03/18 00:15:24;;;;;;;18.15;6.95;;;;;;;12.73;100.00;100466.84;4870377;29;20499;-82
2023/03/18 00:17:50;;;;;;;16.90;7.90;;;;;;;12.64;100.00;100460.31;4884751;29;20088;-82
2023/03/18 00:20:17;;;;;;;16.45;6.75;;;;;;;12.62;100.00;100457.72;4890268;29;20096;-83
2023/03/18 00:22:44;;;;;;;14.60;6.50;;;;;;;12.52;100.00;100464.22;4885997;29;20062;-85
2023/03/18 00:25:14;;;;;;;16.65;7.22;;;;;;;12.41;100.00;100459.72;4885180;29;20028;-84
2023/03/18 00:27:39;;;;;;;21.65;6.88;;;;;;;12.35;100.00;100441.97;4867497;29;20032;-84
2023/03/18 00:30:06;;;;;;;14.30;7.25;;;;;;;12.40;100.00;100463.50;4878735;29;20028;-84
2023/03/18 00:32:33;;;;;;;15.55;6.72;;;;;;;12.29;100.00;100450.75;4918635;29;20036;-84
2023/03/18 00:35:00;;;;;;;15.20;7.28;;;;;;;12.37;100.00;100456.41;4901582;29;20111;-81
2023/03/18 00:37:29;;;;;;;16.30;7.95;;;;;;;12.30;100.00;100460.75;4902355;29;20039;-83
2023/03/18 00:40:19;;;;;;;17.80;7.60;;;;;;;12.32;100.00;100477.94;4916789;29;20028;-83
2023/03/18 00:42:56;;;;;;;20.90;8.60;;;;;;;12.35;100.00;100469.41;4883664;29;20048;-83
2023/03/18 00:45:23;;;;;;;19.55;8.63;;;;;;;12.30;100.00;100478.09;4901983;29;20040;-81
2023/03/18 00:47:49;;;;;;;20.40;8.25;;;;;;;12.24;100.00;100483.28;4901588;29;20028;-82
2023/03/18 00:50:15;;;;;;;22.67;8.60;;;;;;;12.30;100.00;100490.94;4894164;29;20403;-82
2023/03/18 00:52:41;;;;;;;17.05;8.93;;;;;;;12.30;100.00;100491.81;4861812;29;20040;-84
2023/03/18 00:55:07;;;;;;;21.85;9.13;;;;;;;12.20;100.00;100488.19;4898848;29;20043;-83
2023/03/18 00:57:33;;;;;;;20.10;8.48;;;;;;;12.26;100.00;100503.19;4886079;29;20514;-83
2023/03/18 00:59:58;;;;;;;17.40;8.52;;;;;;;12.18;100.00;100500.28;4886850;29;20028;-82
2023/03/18 01:02:26;;;;;;;19.52;8.27;;;;;;;12.29;100.00;100517.50;4878935;29;20040;-84
2023/03/18 01:04:52;;;;;;;14.35;7.32;;;;;;;12.16;100.00;100505.06;4913769;29;20044;-83
2023/03/18 01:07:18;;;;;;;15.48;8.35;;;;;;;12.23;100.00;100514.47;4869208;29;20052;-83
2023/03/18 01:09:43;;;;;;;12.73;7.55;;;;;;;12.11;100.00;100497.25;4889604;29;20047;-83
2023/03/18 01:12:11;;;;;;;16.30;8.27;;;;;;;12.16;100.00;100513.31;4879563;29;20044;-82
2023/03/18 01:14:38;;;;;;;17.25;8.65;;;;;;;12.12;100.00;100513.56;4871589;29;20349;-85
2023/03/18 01:17:05;;;;;;;20.98;8.77;;;;;;;11.98;100.00;100502.13;4876645;29;20044;-85
2023/03/18 01:19:31;;;;;;;21.27;8.90;;;;;;;12.04;100.00;100507.06;4871268;29;20048;-85
2023/03/18 01:21:57;;;;;;;19.42;7.75;;;;;;;11.87;100.00;100509.44;4901125;29;20044;-85
2023/03/18 01:24:23;;;;;;;18.50;9.65;;;;;;;11.99;100.00;100492.91;4860290;29;20032;-84
2023/03/18 01:26:48;;;;;;;19.27;9.45;;;;;;;11.97;100.00;100508.59;4893161;29;20036;-85
2023/03/18 01:29:17;;;;;;;21.05;9.98;;;;;;;11.86;100.00;100504.94;4878730;29;20033;-83
2023/03/18 01:31:44;;;;;;;22.08;9.65;;;;;;;11.83;100.00;100499.72;4864044;29;20036;-84
2023/03/18 01:34:13;;;;;;;25.33;9.30;;;;;;;11.77;100.00;100487.44;4904157;29;20048;-84
2023/03/18 01:36:39;;;;;;;20.42;9.93;;;;;;;11.63;100.00;100490.56;4901856;29;20519;-84
2023/03/18 01:39:05;;;;;;;20.77;10.93;;;;;;;11.63;100.00;100484.22;4905164;29;20044;-84
2023/03/18 01:41:31;;;;;;;19.17;10.05;;;;;;;11.66;100.00;100483.91;4876417;29;20047;-82
2023/03/18 01:43:57;;;;;;;21.65;10.30;;;;;;;11.63;100.00;100479.59;4885985;29;20039;-83
2023/03/18 01:46:44;;;;;;;27.65;11.30;;;;;;;11.62;100.00;100458.66;4906044;29;20074;-83
2023/03/18 01:49:15;;;;;;;23.73;11.18;;;;;;;11.63;100.00;100459.53;4896841;29;20045;-85
2023/03/18 01:51:45;;;;;;;21.48;11.23;;;;;;;11.61;100.00;100459.66;4892775;29;20100;-84
2023/03/18 01:54:13;;;;;;;20.23;11.48;;;;;;;11.32;100.00;100457.66;4910885;29;20102;-84
2023/03/18 01:56:41;;;;;;;23.67;12.05;;;;;;;11.45;100.00;100464.78;4877312;29;20037;-83
2023/03/18 01:59:08;;;;;;;25.08;12.55;;;;;;;11.28;100.00;100447.09;4892913;29;20060;-84
2023/03/18 02:01:54;;;;;;;27.73;12.38;;;;;;;11.16;100.00;100446.31;4891842;29;20773;-81
2023/03/18 02:04:24;;;;;;;25.88;12.55;;;;;;;11.46;100.00;100483.84;4905458;29;20036;-83
2023/03/18 02:06:50;;;;;;;34.97;13.60;;;;;;;11.40;100.00;100478.91;4883846;29;20065;-82
2023/03/18 02:09:16;;;;;;;25.55;13.70;;;;;;;11.34;100.00;100479.44;4903460;29;20116;-83
2023/03/18 02:11:48;;;;;;;22.85;13.05;;;;;;;11.36;100.00;100486.53;4899231;29;20063;-83
2023/03/18 02:14:16;;;;;;;31.60;13.27;;;;;;;11.35;100.00;100484.78;4911380;29;20480;-83
2023/03/18 02:16:57;;;;;;;26.38;13.85;;;;;;;11.27;100.00;100472.78;4920387;29;20123;-83
2023/03/18 02:19:28;;;;;;;26.17;13.07;;;;;;;11.40;100.00;100484.38;4907682;29;20123;-83
2023/03/18 02:22:04;;;;;;;26.20;14.02;;;;;;;11.31;100.00;100490.66;4892577;29;20045;-82
2023/03/18 02:24:54;;;;;;;30.88;13.52;;;;;;;11.27;100.00;100495.56;4924746;29;20047;-82
2023/03/18 02:27:25;;;;;;;27.05;14.70;;;;;;;11.29;100.00;100493.53;4922749;29;20048;-83
2023/03/18 02:29:55;;;;;;;26.20;14.30;;;;;;;11.29;100.00;100490.81;4911252;29;20036;-82
2023/03/18 02:32:26;;;;;;;35.40;14.38;;;;;;;11.15;100.00;100504.84;4922639;29;20072;-83
2023/03/18 02:34:51;;;;;;;27.02;14.35;;;;;;;11.18;100.00;100502.72;4895302;29;20032;-83
2023/03/18 02:37:17;;;;;;;29.58;14.57;;;;;;;11.24;100.00;100503.19;4910748;29;20123;-82
2023/03/18 02:39:42;;;;;;;32.42;16.08;;;;;;;11.19;100.00;100496.22;4896624;29;20051;-83
2023/03/18 02:42:12;;;;;;;28.50;15.02;;;;;;;11.31;100.00;100498.91;4908675;29;20033;-83
2023/03/18 02:44:42;;;;;;;26.20;14.13;;;;;;;11.11;100.00;100487.81;4914546;29;20036;-82
2023/03/18 02:47:17;;;;;;;26.13;13.82;;;;;;;11.05;100.00;100502.03;4910762;29;20068;-83
2023/03/18 02:49:43;;;;;;;28.17;15.32;;;;;;;11.13;100.00;100510.44;4896041;29;20564;-83
2023/03/18 02:52:09;;;;;;;32.53;15.82;;;;;;;11.16;100.00;100515.66;4912251;29;20106;-83
2023/03/18 02:54:34;;;;;;;29.88;15.57;;;;;;;11.03;100.00;100518.63;4895633;29;20039;-83
2023/03/18 02:57:03;;;;;;;31.63;15.77;;;;;;;11.12;100.00;100516.09;4860135;29;20411;-81
2023/03/18 02:59:31;;;;;;;33.97;15.60;;;;;;;11.13;100.00;100512.34;4925787;29;20399;-83
2023/03/18 03:01:56;;;;;;;30.92;15.80;;;;;;;11.04;100.00;100514.00;4868324;29;20040;-83
2023/03/18 03:04:24;;;;;;;33.42;14.52;;;;;;;11.19;100.00;100518.16;4925812;29;20051;-83
2023/03/18 03:06:51;;;;;;;33.40;15.63;;;;;;;11.19;100.00;100500.84;4911074;29;20028;-82
2023/03/18 03:09:16;;;;;;;28.48;15.23;;;;;;;11.20;100.00;100503.44;4892875;29;20048;-83
2023/03/18 03:11:44;;;;;;;32.35;16.58;;;;;;;11.18;100.00;100512.81;4928976;29;20040;-83
2023/03/18 03:14:11;;;;;;;31.92;16.42;;;;;;;11.16;100.00;100512.06;4896435;29;20039;-83
2023/03/18 03:16:36;;;;;;;31.55;14.68;;;;;;;11.10;100.00;100518.06;4876740;29;20057;-83
2023/03/18 03:19:04;;;;;;;31.85;14.88;;;;;;;11.12;100.00;100524.31;4910200;29;20051;-83
2023/03/18 03:21:31;;;;;;;25.42;15.30;;;;;;;10.98;100.00;100509.91;4881022;29;20032;-83
2023/03/18 03:23:57;;;;;;;28.20;15.52;;;;;;;11.03;100.00;100524.13;4911039;29;20067;-84
2023/03/18 03:26:23;;;;;;;32.08;15.80;;;;;;;11.12;100.00;100529.81;4880672;29;20093;-84
2023/03/18 03:28:49;;;;;;;32.10;15.75;;;;;;;11.12;100.00;100516.09;4912086;29;20048;-84
2023/03/18 03:31:16;;;;;;;34.08;15.93;;;;;;;11.20;100.00;100525.38;4913298;29;20052;-84
2023/03/18 03:33:42;;;;;;;28.75;15.07;;;;;;;11.25;100.00;100516.75;4882307;29;20040;-83
2023/03/18 03:36:11;;;;;;;29.30;15.77;;;;;;;11.29;100.00;100531.91;4866108;29;20028;-83
2023/03/18 03:38:36;;;;;;;33.95;15.98;;;;;;;11.04;100.00;100509.41;4888966;29;20032;-82
2023/03/18 03:41:02;;;;;;;30.38;16.45;;;;;;;11.22;100.00;100542.53;4878306;29;20040;-84
2023/03/18 03:43:28;;;;;;;31.58;16.45;;;;;;;11.16;100.00;100515.66;4899381;29;20043;-83
2023/03/18 03:45:54;;;;;;;33.55;15.60;;;;;;;11.21;100.00;100539.94;4884937;29;20100;-83
2023/03/18 03:48:20;;;;;;;29.23;16.48;;;;;;;11.26;100.00;100534.06;4894982;29;20038;-84
2023/03/18 03:50:46;;;;;;;26.15;16.17;;;;;;;11.22;100.00;100541.69;4905159;29;20044;-81
2023/03/18 03:53:12;;;;;;;34.03;16.95;;;;;;;11.12;100.00;100533.41;4875846;29;20132;-83
2023/03/18 03:55:37;;;;;;;27.23;16.33;;;;;;;11.23;100.00;100540.66;4873681;29;20047;-85
2023/03/18 03:58:06;;;;;;;35.55;17.40;;;;;;;11.13;100.00;100529.63;4876453;29;20043;-84
2023/03/18 04:00:32;;;;;;;30.85;16.45;;;;;;;11.17;100.00;100547.56;4897208;29;20143;-83
2023/03/18 04:02:58;;;;;;;40.55;17.48;;;;;;;11.04;100.00;100528.56;4894095;29;20047;-83
2023/03/18 04:05:24;;;;;;;26.67;15.82;;;;;;;11.20;100.00;100547.31;4888904;29;20051;-81
2023/03/18 04:07:51;;;;;;;29.35;16.98;;;;;;;11.22;100.00;100550.78;4903251;29;20040;-83
2023/03/18 04:10:19;;;;;;;34.28;15.90;;;;;;;11.21;100.00;100556.38;4927340;29;20048;-83
2023/03/18 04:12:45;;;;;;;30.90;17.13;;;;;;;11.25;100.00;100563.34;4883239;29;20040;-82
2023/03/18 04:15:16;;;;;;;31.13;16.70;;;;;;;11.24;100.00;100560.75;4903428;29;20081;-83
2023/03/18 04:17:42;;;;;;;29.17;16.13;;;;;;;11.18;100.00;100559.38;4891194;29;20137;-84
2023/03/18 04:20:08;;;;;;;29.02;16.65;;;;;;;11.09;100.00;100563.81;4894728;29;20041;-84
2023/03/18 04:22:35;;;;;;;25.75;16.30;;;;;;;11.04;100.00;100558.72;4912986;29;20055;-84
2023/03/18 04:25:01;;;;;;;33.33;17.95;;;;;;;11.18;100.00;100570.34;4874667;29;20055;-83
2023/03/18 04:27:27;;;;;;;33.22;17.33;;;;;;;11.12;100.00;100559.94;4896014;29;20134;-83
2023/03/18 04:29:53;;;;;;;30.67;16.92;;;;;;;11.15;100.00;100571.50;4911966;29;20045;-83
2023/03/18 04:32:19;;;;;;;36.38;17.20;;;;;;;11.06;100.00;100569.53;4907900;29;20047;-83
2023/03/18 04:34:45;;;;;;;32.60;17.45;;;;;;;10.98;100.00;100567.44;4899447;29;20072;-82
2023/03/18 04:37:13;;;;;;;32.05;16.30;;;;;;;11.07;100.00;100568.56;4888301;29;20043;-83
2023/03/18 04:39:38;;;;;;;34.85;17.65;;;;;;;11.09;100.00;100572.03;4872664;29;20060;-83
2023/03/18 04:42:06;;;;;;;32.78;17.30;;;;;;;11.08;100.00;100570.28;4883064;29;20037;-82
2023/03/18 04:44:32;;;;;;;30.60;16.85;;;;;;;11.15;100.00;100571.50;4893441;29;20041;-83
2023/03/18 04:46:58;;;;;;;33.60;16.10;;;;;;;11.10;100.00;100576.50;4872915;29;20044;-82
2023/03/18 04:49:24;;;;;;;34.05;17.92;;;;;;;11.16;100.00;100572.34;4895660;29;20091;-80
2023/03/18 04:51:50;;;;;;;32.25;17.55;;;;;;;11.04;100.00;100575.16;4899462;29;20144;-82
2023/03/18 04:54:15;;;;;;;30.95;17.23;;;;;;;11.04;100.00;100574.28;4869742;29;20073;-82
2023/03/18 04:56:42;;;;;;;32.67;17.27;;;;;;;11.01;100.00;100571.81;4895455;29;20036;-82
2023/03/18 04:59:08;;;;;;;32.67;16.90;;;;;;;10.93;100.00;100558.75;4881605;29;20036;-83
2023/03/18 05:01:33;;;;;;;31.80;17.48;;;;;;;11.00;100.00;100583.75;4896342;29;20041;-84
2023/03/18 05:03:59;;;;;;;30.65;17.58;;;;;;;10.93;100.00;100577.06;4881708;29;20092;-82
2023/03/18 05:06:28;;;;;;;30.90;17.73;;;;;;;11.02;100.00;100579.03;4895703;29;20059;-81
2023/03/18 05:08:55;;;;;;;33.60;17.23;;;;;;;10.88;100.00;100582.94;4911217;29;20151;-82
2023/03/18 05:11:22;;;;;;;33.78;18.45;;;;;;;10.90;100.00;100596.50;4911797;29;20055;-82
2023/03/18 05:13:47;;;;;;;28.48;17.30;;;;;;;10.85;100.00;100586.81;4878948;29;20037;-83
2023/03/18 05:16:14;;;;;;;31.35;16.73;;;;;;;10.96;100.00;100596.84;4876656;29;20123;-83
2023/03/18 05:18:41;;;;;;;33.53;18.15;;;;;;;10.88;100.00;100601.25;4871273;29;20079;-83
2023/03/18 05:21:09;;;;;;;34.55;17.60;;;;;;;10.81;100.00;100584.47;4905829;29;20037;-83
2023/03/18 05:23:34;;;;;;;32.38;17.90;;;;;;;10.85;100.00;100584.09;4921170;29;20044;-82
2023/03/18 05:26:00;;;;;;;31.98;17.48;;;;;;;10.87;100.00;100594.91;4890034;29;20032;-82
2023/03/18 05:28:26;;;;;;;32.72;17.38;;;;;;;10.89;100.00;100594.75;4890352;29;20378;-82
2023/03/18 05:30:52;;;;;;;33.10;18.17;;;;;;;10.88;100.00;100590.28;4892147;29;20100;-83
2023/03/18 05:33:18;;;;;;;30.67;17.23;;;;;;;10.94;100.00;100600.75;4908127;29;20045;-82
2023/03/18 05:35:44;;;;;;;31.27;16.95;;;;;;;10.90;100.00;100589.16;4903723;29;20488;-82
2023/03/18 05:38:09;;;;;;;37.00;17.00;;;;;;;10.78;100.00;100571.91;4845052;29;20083;-82
2023/03/18 05:40:36;;;;;;;28.70;16.58;;;;;;;10.88;100.00;100582.06;4881906;29;20126;-83
2023/03/18 05:43:02;;;;;;;29.95;17.08;;;;;;;10.84;100.00;100576.84;4901702;29;20115;-83
2023/03/18 05:45:28;;;;;;;28.95;16.30;;;;;;;10.77;100.00;100592.09;4894662;29;20052;-83
2023/03/18 05:47:53;;;;;;;27.90;16.85;;;;;;;10.87;100.00;100607.72;4895065;29;20044;-83
2023/03/18 05:50:40;;;;;;;32.45;16.75;;;;;;;10.75;100.00;100596.78;4925923;29;20033;-83
2023/03/18 05:53:07;;;;;;;31.63;16.98;;;;;;;10.81;100.00;100606.38;4878258;29;20059;-82
2023/03/18 05:55:34;;;;;;;31.77;16.10;;;;;;;10.78;100.00;100617.59;4893031;29;20065;-83
2023/03/18 05:58:00;;;;;;;30.35;16.38;;;;;;;10.72;100.00;100618.94;4874259;29;20115;-82
2023/03/18 06:00:28;;;;;;;34.05;16.20;;;;;;;10.77;100.00;100615.84;4890705;29;20048;-84
2023/03/18 06:02:55;;;;;;;31.52;15.88;;;;;;;10.76;100.00;100625.94;4908027;29;20036;-83
2023/03/18 06:05:22;;;;;;;29.67;15.20;;;;;;;10.67;100.00;100615.75;4858606;29;20041;-83
2023/03/18 06:07:48;;;;;;;34.35;16.13;;;;;;;10.74;100.00;100629.78;4886951;29;20036;-84
2023/03/18 06:10:14;;;;;;;28.50;16.60;;;;;;;10.76;100.00;100623.19;4912054;29;20112;-84
2023/03/18 06:12:41;;;;;;;28.60;15.20;;;;;;;10.58;100.00;100595.47;4892532;29;20060;-82
2023/03/18 06:15:08;;;;;;;32.65;15.35;;;;;;;10.72;100.00;100618.09;4886046;29;20107;-83
2023/03/18 06:17:34;;;;;;;27.60;15.23;;;;;;;10.69;100.00;100623.81;4915606;29;20059;-83
2023/03/18 06:19:59;;;;;;;22.38;14.70;;;;;;;10.60;100.00;100614.53;4916740;29;20032;-84
2023/03/18 06:22:28;;;;;;;31.55;15.73;;;;;;;10.64;100.00;100621.47;4917369;29;20100;-84
2023/03/18 06:24:53;;;;;;;26.08;15.73;;;;;;;10.63;100.00;100630.69;4899326;29;20089;-84
2023/03/18 06:27:19;;;;;;;30.02;15.98;;;;;;;10.55;100.00;100619.50;4885921;29;20038;-82
2023/03/18 06:29:44;;;;;;;34.83;16.73;;;;;;;10.43;100.00;100605.84;4916579;29;20052;-84
2023/03/18 06:32:10;;;;;;;39.03;17.17;;;;;;;10.61;100.00;100632.69;4927365;29;20054;-83
2023/03/18 06:34:39;;;;;;;27.88;16.30;;;;;;;10.64;100.00;100633.31;4914566;29;20065;-81
2023/03/18 06:37:05;;;;;;;28.73;15.75;;;;;;;10.76;100.00;100636.88;4923867;29;20076;-83
2023/03/18 06:39:30;;;;;;;26.73;16.40;;;;;;;10.83;100.00;100650.94;4936974;29;20040;-82
2023/03/18 06:41:56;;;;;;;25.98;16.00;;;;;;;11.07;100.00;100641.63;4918958;29;20020;-82
2023/03/18 06:44:22;;;;;;;24.50;15.23;;;;;;;11.13;100.00;100636.50;4902427;29;20048;-81
2023/03/18 06:46:48;;;;;;;26.45;14.70;;;;;;;11.05;100.00;100639.03;4912222;29;20032;-82
2023/03/18 06:49:14;;;;;;;22.42;14.20;;;;;;;11.19;100.00;100633.25;4915355;29;20044;-84
2023/03/18 06:51:41;;;;;;;26.23;14.70;;;;;;;11.17;100.00;100645.34;4930228;29;20048;-83
2023/03/18 06:54:08;;;;;;;28.52;15.30;;;;;;;11.17;100.00;100645.34;4889552;29;20040;-82
2023/03/18 06:56:36;;;;;;;21.27;13.63;;;;;;;11.18;100.00;100649.81;4891404;29;20076;-82
2023/03/18 06:59:02;;;;;;;26.33;14.23;;;;;;;11.16;100.00;100646.34;4896574;29;20151;-82
2023/03/18 07:01:29;;;;;;;28.67;15.15;;;;;;;11.33;100.00;100643.03;4903591;29;20092;-81
2023/03/18 07:03:57;;;;;;;25.35;14.25;;;;;;;11.34;100.00;100654.88;4889302;29;20491;-81
2023/03/18 07:06:23;;;;;;;24.75;14.70;;;;;;;11.34;100.00;100642.03;4890374;29;20050;-81
2023/03/18 07:08:48;;;;;;;31.13;16.02;;;;;;;11.45;100.00;100637.50;4903961;29;20048;-81
2023/03/18 07:11:15;;;;;;;19.90;13.95;;;;;;;11.56;100.00;100645.69;4918910;29;20068;-83
2023/03/18 07:13:41;;;;;;;27.73;15.60;;;;;;;11.58;100.00;100650.00;4885468;29;20619;-83
2023/03/18 07:16:06;;;;;;;27.77;16.08;;;;;;;11.64;100.00;100654.09;4891598;29;20115;-80
2023/03/18 07:18:32;;;;;;;23.20;13.05;;;;;;;11.62;100.00;100671.69;4884937;29;20051;-81
2023/03/18 07:20:58;;;;;;;21.05;14.57;;;;;;;11.64;100.00;100665.06;4910485;29;20043;-80
2023/03/18 07:23:27;;;;;;;21.35;14.60;;;;;;;11.58;100.00;100671.09;4889748;29;20447;-81
2023/03/18 07:25:53;;;;;;;21.10;12.65;;;;;;;11.65;100.00;100679.66;4918772;29;20062;-80
2023/03/18 07:28:19;;;;;;;21.73;13.63;;;;;;;11.78;100.00;100683.91;4916670;29;20040;-81
2023/03/18 07:30:45;;;;;;;26.83;14.85;;;;;;;11.58;100.00;100685.66;4905347;29;20480;-80
2023/03/18 07:33:11;;;;;;;19.90;13.27;;;;;;;11.66;100.00;100667.66;4887337;29;20032;-81
2023/03/18 07:35:39;;;;;;;21.63;12.60;;;;;;;11.71;100.00;100688.22;4913335;29;20044;-83
2023/03/18 07:38:06;;;;;;;21.55;13.45;;;;;;;11.66;100.00;100679.50;4880807;29;20016;-84
2023/03/18 07:40:31;;;;;;;19.05;13.05;;;;;;;11.98;100.00;100672.25;4915892;29;20059;-83
2023/03/18 07:42:57;;;;;;;22.45;12.65;;;;;;;11.84;100.00;100696.25;4903603;29;20020;-81
2023/03/18 07:45:22;;;;;;;19.52;11.35;;;;;;;12.07;100.00;100709.88;4909604;29;20039;-84
2023/03/18 07:47:48;;;;;;;16.80;12.13;;;;;;;12.14;100.00;100711.91;4919073;29;20040;-84
2023/03/18 07:50:14;;;;;;;18.42;11.88;;;;;;;12.11;100.00;100705.81;4907621;29;20033;-82
2023/03/18 07:52:40;;;;;;;17.42;11.45;;;;;;;12.55;100.00;100711.97;4923578;29;20036;-82
2023/03/18 07:55:08;;;;;;;17.83;10.82;;;;;;;12.40;100.00;100699.63;4906073;29;20055;-81
2023/03/18 07:57:34;;;;;;;15.48;11.32;;;;;;;12.74;100.00;100715.81;4866915;29;20036;-80
2023/03/18 08:00:00;;;;;;;17.52;10.95;;;;;;;12.95;100.00;100713.84;4866800;29;20029;-80
2023/03/18 08:02:28;;;;;;;16.90;11.05;;;;;;;12.85;100.00;100716.59;4873703;29;20044;-81
2023/03/18 08:04:54;;;;;;;17.45;10.88;;;;;;;12.97;100.00;100725.59;4874238;29;20041;-82
2023/03/18 08:07:19;;;;;;;15.48;10.45;;;;;;;12.90;100.00;100720.78;4887651;29;20171;-83
2023/03/18 08:09:45;;;;;;;14.73;9.50;;;;;;;12.50;100.00;100722.50;4901875;29;20092;-82
2023/03/18 08:12:10;;;;;;;14.05;10.32;;;;;;;12.63;100.00;100727.78;4895526;29;20517;-83
2023/03/18 08:14:39;;;;;;;16.40;9.93;;;;;;;12.64;100.00;100724.00;4868118;29;20370;-83
2023/03/18 08:17:05;;;;;;;14.82;8.95;;;;;;;12.64;100.00;100710.28;4877266;29;20060;-84
2023/03/18 08:19:30;;;;;;;20.27;10.45;;;;;;;12.62;100.00;100717.78;4877691;29;20084;-82
2023/03/18 08:21:57;;;;;;;18.98;10.43;;;;;;;12.39;100.00;100703.38;4891932;29;20033;-82
2023/03/18 08:24:23;;;;;;;16.25;10.00;;;;;;;12.40;100.00;100707.88;4883039;29;20052;-82
2023/03/18 08:26:49;;;;;;;14.30;10.13;;;;;;;12.61;100.00;100708.69;4895387;29;20037;-83
2023/03/18 08:29:14;;;;;;;14.30;9.80;;;;;;;13.15;100.00;100717.53;4911806;29;20051;-83
2023/03/18 08:31:40;;;;;;;15.38;9.10;;;;;;;13.66;100.00;100718.31;4878323;29;20071;-83
2023/03/18 08:34:05;;;;;;;15.45;8.90;;;;;;;14.15;100.00;100724.63;4863989;29;20068;-83
2023/03/18 08:36:31;;;;;;;13.80;8.32;;;;;;;14.30;100.00;100718.66;4877742;29;20092;-82
2023/03/18 08:38:57;;;;;;;14.88;8.63;;;;;;;14.16;100.00;100720.00;4894033;29;20044;-82
2023/03/18 08:41:24;;;;;;;11.57;8.27;;;;;;;14.30;100.00;100721.44;4895285;29;20032;-82
2023/03/18 08:43:51;;;;;;;15.85;8.45;;;;;;;14.99;100.00;100728.41;4865178;29;20036;-82
2023/03/18 08:46:17;;;;;;;10.82;7.55;;;;;;;14.29;100.00;100715.03;4864727;29;20489;-82
2023/03/18 08:48:43;;;;;;;11.45;7.50;;;;;;;14.84;100.00;100728.06;4912939;29;20083;-85
2023/03/18 08:51:12;;;;;;;12.77;7.88;;;;;;;14.37;100.00;100732.72;4849926;29;20066;-83
2023/03/18 08:53:37;;;;;;;10.15;7.63;;;;;;;14.16;100.00;100736.50;4892638;29;20041;-82
2023/03/18 08:56:05;;;;;;;14.90;8.10;;;;;;;13.77;100.00;100726.44;4893863;29;20077;-84
2023/03/18 08:58:31;;;;;;;10.30;7.63;;;;;;;14.13;100.00;100734.06;4894600;29;20086;-84
2023/03/18 09:01:02;;;;;;;12.57;7.93;;;;;;;14.65;100.00;100740.03;4894701;29;20037;-84
2023/03/18 09:03:30;;;;;;;11.38;7.50;;;;;;;15.20;100.00;100727.25;4905471;29;20091;-84
2023/03/18 09:05:56;;;;;;;12.10;7.82;;;;;;;15.42;100.00;100743.38;4866014;29;20028;-85
2023/03/18 09:08:28;;;;;;;9.48;7.13;;;;;;;15.51;100.00;100736.06;4932567;29;20407;-84
2023/03/18 09:10:55;;;;;;;11.05;7.68;;;;;;;15.13;100.00;100738.06;4911692;29;20036;-82
2023/03/18 09:15:54;;;;;;;9.45;7.20;;;;;;;14.24;100.00;100733.88;4948252;29;20122;-82
2023/03/18 09:18:21;;;;;;;11.10;7.30;;;;;;;14.08;100.00;100728.97;4905362;29;20046;-83
2023/03/18 09:20:49;;;;;;;9.43;6.28;;;;;;;14.57;100.00;100723.34;4904786;29;20047;-85
2023/03/18 09:23:17;;;;;;;7.13;5.75;;;;;;;14.83;100.00;100720.81;4918487;29;20028;-86
2023/03/18 09:25:45;;;;;;;10.68;5.90;;;;;;;15.13;100.00;100731.69;4888958;29;20035;-83
2023/03/18 09:28:11;;;;;;;7.75;6.18;;;;;;;15.61;100.00;100731.34;4938117;29;20031;-83
2023/03/18 09:30:37;;;;;;;8.43;5.45;;;;;;;15.74;100.00;100719.91;4920143;29;20063;-84
2023/03/18 09:33:05;;;;;;;9.93;5.97;;;;;;;16.64;100.00;100739.06;4918752;29;20052;-84
2023/03/18 09:35:31;;;;;;;9.60;5.95;;;;;;;16.68;100.00;100736.84;4933638;29;20038;-78
2023/03/18 09:37:57;;;;;;;6.05;4.95;;;;;;;16.87;100.00;100741.28;4917133;29;20454;-84
2023/03/18 09:40:44;;;;;;;6.15;4.55;;;;;;;15.46;100.00;100746.69;4904369;29;20047;-84
2023/03/18 09:43:30;;;;;;;7.43;4.65;;;;;;;16.01;100.00;100753.13;4934584;29;20114;-84
2023/03/18 09:46:27;;;;;;;7.88;4.90;;;;;;;16.45;100.00;100742.06;4949768;29;20024;-85
2023/03/18 09:49:12;;;;;;;7.20;4.80;;;;;;;16.99;100.00;100736.34;4960549;28;20050;-83
2023/03/18 09:52:07;;;;;;;5.63;4.05;;;;;;;16.98;100.00;100743.75;4929452;28;20055;-83
2023/03/18 09:54:41;;;;;;;6.30;3.95;;;;;;;17.10;100.00;100744.31;4944163;29;20028;-85
2023/03/18 09:57:30;;;;;;;7.40;4.07;;;;;;;17.61;100.00;100731.31;4929666;28;20031;-84
2023/03/18 10:00:15;;;;;;;6.72;4.30;;;;;;;17.63;100.00;100740.31;4929591;28;20127;-84
2023/03/18 10:03:00;;;;;;;4.72;3.85;;;;;;;17.70;100.00;100739.63;4944219;29;20040;-85
2023/03/18 10:05:32;;;;;;;9.43;3.60;;;;;;;17.61;100.00;100735.97;4945190;29;20027;-85
2023/03/18 10:08:30;;;;;;;7.97;3.75;;;;;;;17.45;100.00;100742.38;4943863;29;20034;-84
2023/03/18 10:11:03;;;;;;;9.02;4.05;;;;;;;17.30;100.00;100719.13;4922762;29;20048;-85
2023/03/18 10:13:35;;;;;;;6.50;3.65;;;;;;;17.35;100.00;100736.09;4957650;28;20046;-82
2023/03/18 10:16:03;;;;;;;6.18;3.20;;;;;;;17.55;100.00;100728.38;4919830;29;20091;-84
2023/03/18 10:18:35;;;;;;;7.18;3.78;;;;;;;17.78;100.00;100731.34;4920930;29;20045;-86
2023/03/18 10:21:34;;;;;;;7.05;3.58;;;;;;;18.13;100.00;100732.06;4934522;29;20072;-85
2023/03/18 10:23:59;;;;;;;4.10;3.10;;;;;;;16.87;100.00;100742.16;4925092;29;20028;-81
2023/03/18 10:26:39;;;;;;;4.82;3.05;;;;;;;16.80;100.00;100727.22;4926199;29;20080;-83
2023/03/18 10:29:32;;;;;;;4.55;3.20;;;;;;;17.17;100.00;100731.56;4901200;29;21395;-80
2023/03/18 10:32:31;;;;;;;6.72;3.38;;;;;;;17.49;100.00;100743.75;4916037;29;20036;-80
2023/03/18 10:35:02;;;;;;;3.83;3.00;;;;;;;17.69;100.00;100735.97;4896747;29;20100;-84
2023/03/18 10:40:21;;;;;;;5.80;2.70;;;;;;;17.69;100.00;100733.22;4978116;23;20068;-82
2023/03/18 10:45:27;;;;;;;4.28;2.95;;;;;;;17.97;100.00;100732.91;5052154;23;20047;-83
2023/03/18 10:48:23;;;;;;;5.47;3.03;;;;;;;17.96;100.00;100725.66;4958095;29;20043;-82
2023/03/18 10:51:01;;;;;;;5.57;2.95;;;;;;;18.12;100.00;100722.03;4935237;29;20111;-84
2023/03/18 10:53:31;;;;;;;8.13;3.30;;;;;;;17.66;100.00;100730.81;4941133;29;20046;-84
2023/03/18 10:56:09;;;;;;;6.05;3.00;;;;;;;17.80;100.00;100723.72;4943329;29;20043;-83
2023/03/18 10:58:36;;;;;;;5.15;3.10;;;;;;;18.43;100.00;100724.03;4924776;29;20148;-81
2023/03/18 11:01:06;;;;;;;6.68;3.20;;;;;;;18.18;100.00;100722.19;4921270;29;20043;-84
2023/03/18 11:03:37;;;;;;;5.40;3.90;;;;;;;18.30;100.00;100719.94;4921965;29;20039;-83
2023/03/18 11:06:06;;;;;;;6.75;3.20;;;;;;;18.73;100.00;100723.28;4932168;23;20066;-84
2023/03/18 11:08:39;;;;;;;5.00;3.10;;;;;;;18.22;100.00;100716.28;4921386;29;20461;-83
2023/03/18 11:11:31;;;;;;;5.57;3.15;;;;;;;18.26;100.00;100732.38;4889278;29;20139;-83
2023/03/18 11:14:00;;;;;;;6.43;3.30;;;;;;;18.32;100.00;100722.53;4904210;29;20089;-83
2023/03/18 11:16:36;;;;;;;5.22;3.13;;;;;;;18.06;100.00;100726.34;4906407;29;20048;-83
2023/03/18 11:19:19;;;;;;;5.03;2.75;;;;;;;17.33;100.00;100714.16;4938890;29;20043;-81
2023/03/18 11:21:46;;;;;;;5.70;2.92;;;;;;;16.79;100.00;100724.63;4922749;29;20072;-83